CheckWX is a tool to help pilots better visualize weather data.  It is not intended as a substitute for an official pre-flight weather briefing.

07:06:48 UTC

KALX METAR
Thomas C Russell Field Airport
Alexander City, Alabama, USA
Current

12 mins ago

KALX 230655Z AUTO 00000KT 10SM CLR M01/M01 A3030 RMK AO2 T10061011
Observed
Feb-23 @ 06:55 UTC
Visibility
10 SM
Flight Rules
VFR
Cloud Levels
  • Clear skies
Temperature
-1°C / 30°F
Dewpoint
-1°C / 30°F
Humidity
100%
Altimeter
30.3" Hg
Pressure
1026.12 hPa
Previous

32 mins ago

KALX 230635Z AUTO 00000KT 10SM CLR 00/M01 A3031 RMK AO2 T10041010
Observed
Feb-23 @ 06:35 UTC
Visibility
10 SM
Flight Rules
VFR
Cloud Levels
  • Clear skies
Temperature
-0°C / 32°F
Dewpoint
-1°C / 30°F
Humidity
93%
Altimeter
30.31" Hg
Pressure
1026.42 hPa
Previous

52 mins ago

KALX 230615Z AUTO 00000KT 10SM CLR 00/M01 A3032 RMK AO2 T10011007
Observed
Feb-23 @ 06:15 UTC
Visibility
10 SM
Flight Rules
VFR
Cloud Levels
  • Clear skies
Temperature
-0°C / 32°F
Dewpoint
-1°C / 30°F
Humidity
93%
Altimeter
30.32" Hg
Pressure
1026.72 hPa